createdAt,value
2016-12-16T00:00:30.935Z,23.4
2016-12-16T00:01:11.515Z,23.47
2016-12-16T00:01:52.096Z,23.36
2016-12-16T00:02:32.678Z,23.38
2016-12-16T00:03:14.135Z,23.4
2016-12-16T00:03:53.831Z,23.39
2016-12-16T00:04:34.414Z,23.39
2016-12-16T00:05:14.990Z,23.36
2016-12-16T00:05:55.573Z,23.4
2016-12-16T00:06:36.148Z,23.47
2016-12-16T00:07:16.743Z,23.43
2016-12-16T00:07:57.328Z,23.4
2016-12-16T00:08:37.911Z,23.46
2016-12-16T00:09:18.505Z,23.4
2016-12-16T00:09:59.090Z,23.4
2016-12-16T00:10:39.675Z,23.36
2016-12-16T00:11:20.263Z,23.39
2016-12-16T00:12:00.857Z,23.36
2016-12-16T00:12:41.449Z,23.39
2016-12-16T00:13:22.030Z,23.36
2016-12-16T00:14:02.625Z,23.36
2016-12-16T00:14:43.218Z,23.4
2016-12-16T00:15:23.815Z,23.42
2016-12-16T00:16:04.404Z,23.46
2016-12-16T00:16:44.995Z,23.36
2016-12-16T00:17:25.574Z,23.43
2016-12-16T00:18:06.163Z,23.38
2016-12-16T00:18:46.753Z,23.4
2016-12-16T00:19:27.349Z,23.47
2016-12-16T00:20:07.935Z,23.38
2016-12-16T00:20:48.515Z,23.4
2016-12-16T00:21:29.095Z,23.47
2016-12-16T00:22:09.688Z,23.38
2016-12-16T00:22:50.279Z,23.36
2016-12-16T00:23:30.872Z,23.4
2016-12-16T00:24:11.464Z,23.47
2016-12-16T00:24:52.061Z,23.38
2016-12-16T00:25:32.646Z,23.5
2016-12-16T00:26:13.244Z,23.42
2016-12-16T00:26:53.846Z,23.43
2016-12-16T00:27:34.437Z,23.4
2016-12-16T00:28:15.018Z,23.46
2016-12-16T00:28:55.600Z,23.42
2016-12-16T00:29:36.189Z,23.42
2016-12-16T00:30:16.791Z,23.4
2016-12-16T00:30:57.372Z,23.36
2016-12-16T00:31:37.947Z,23.5
2016-12-16T00:32:18.539Z,23.4
2016-12-16T00:32:59.149Z,23.38
2016-12-16T00:33:39.730Z,23.42
2016-12-16T00:34:20.314Z,23.4
2016-12-16T00:35:00.905Z,23.43
2016-12-16T00:35:41.491Z,23.48
2016-12-16T00:36:22.098Z,23.4
2016-12-16T00:37:02.679Z,23.42
2016-12-16T00:37:43.258Z,23.42
2016-12-16T00:38:23.843Z,23.47
2016-12-16T00:39:04.425Z,23.38
2016-12-16T00:39:45.007Z,23.42
2016-12-16T00:40:25.596Z,23.46
2016-12-16T00:41:06.182Z,23.39
2016-12-16T00:41:46.758Z,23.47
2016-12-16T00:42:27.349Z,23.38
2016-12-16T00:43:07.934Z,23.38
2016-12-16T00:43:48.534Z,23.47
2016-12-16T00:44:29.119Z,23.47
2016-12-16T00:45:09.697Z,23.43
2016-12-16T00:45:50.276Z,23.36
2016-12-16T00:46:30.860Z,23.36
2016-12-16T00:47:11.437Z,23.39
2016-12-16T00:47:52.026Z,23.39
2016-12-16T00:48:32.610Z,23.43
2016-12-16T00:49:13.201Z,23.46
2016-12-16T00:49:53.786Z,23.39
2016-12-16T00:50:34.362Z,23.46
2016-12-16T00:51:14.946Z,23.36
2016-12-16T00:51:55.525Z,23.4
2016-12-16T00:52:36.119Z,23.46
2016-12-16T00:53:16.713Z,23.43
2016-12-16T00:53:57.307Z,23.38
2016-12-16T00:54:37.888Z,23.36
2016-12-16T00:55:18.467Z,23.36
2016-12-16T00:55:59.052Z,23.36
2016-12-16T00:56:39.644Z,23.42
2016-12-16T00:57:20.223Z,23.43
2016-12-16T00:58:00.797Z,23.38
2016-12-16T00:58:41.377Z,23.46
2016-12-16T00:59:21.959Z,23.39
2016-12-16T01:00:02.543Z,23.42
2016-12-16T01:00:43.124Z,23.39
2016-12-16T01:01:23.705Z,23.38
2016-12-16T01:02:04.292Z,23.46
2016-12-16T01:02:44.873Z,23.36
2016-12-16T01:03:25.461Z,23.4
2016-12-16T01:04:06.050Z,23.47
2016-12-16T01:04:46.639Z,23.43
2016-12-16T01:05:27.222Z,23.47
2016-12-16T01:06:07.800Z,23.47
2016-12-16T01:06:48.386Z,23.38
2016-12-16T01:07:28.975Z,23.4
2016-12-16T01:08:09.560Z,23.47
2016-12-16T01:08:50.131Z,23.43
2016-12-16T01:09:30.714Z,23.38
2016-12-16T01:10:11.303Z,23.43
2016-12-16T01:10:51.889Z,23.4
2016-12-16T01:11:32.472Z,23.33
2016-12-16T01:12:13.052Z,23.47
2016-12-16T01:12:53.638Z,23.43
2016-12-16T01:13:34.213Z,23.39
2016-12-16T01:14:14.792Z,23.35
2016-12-16T01:14:55.366Z,23.38
2016-12-16T01:15:35.949Z,23.38
2016-12-16T01:16:16.544Z,23.38
2016-12-16T01:16:57.127Z,23.4
2016-12-16T01:17:37.710Z,23.35
2016-12-16T01:18:18.298Z,23.31
2016-12-16T01:18:58.874Z,23.43
2016-12-16T01:19:39.458Z,23.39
2016-12-16T01:20:20.048Z,23.35
2016-12-16T01:21:00.636Z,23.33
2016-12-16T01:21:41.219Z,23.47
2016-12-16T01:22:21.807Z,23.36
2016-12-16T01:23:02.399Z,23.38
2016-12-16T01:23:42.978Z,23.38
2016-12-16T01:24:23.562Z,23.38
2016-12-16T01:25:04.133Z,23.38
2016-12-16T01:25:44.712Z,23.46
2016-12-16T01:26:25.299Z,23.4
2016-12-16T01:27:05.876Z,23.47
2016-12-16T01:27:46.454Z,23.4
2016-12-16T01:28:27.041Z,23.38
2016-12-16T01:29:07.622Z,23.33
2016-12-16T01:29:48.205Z,23.38
2016-12-16T01:30:28.787Z,23.38
2016-12-16T01:31:09.383Z,23.46
2016-12-16T01:31:49.965Z,23.4
2016-12-16T01:32:30.541Z,23.4
2016-12-16T01:33:11.125Z,23.35
2016-12-16T01:33:51.703Z,23.38
2016-12-16T01:34:32.295Z,23.39
2016-12-16T01:35:12.892Z,23.39
2016-12-16T01:35:53.479Z,23.42
2016-12-16T01:36:34.066Z,23.39
2016-12-16T01:37:14.658Z,23.39
2016-12-16T01:37:55.256Z,23.38
2016-12-16T01:38:35.848Z,23.36
2016-12-16T01:39:16.437Z,23.36
2016-12-16T01:39:57.032Z,23.36
2016-12-16T01:40:37.607Z,23.43
2016-12-16T01:41:18.186Z,23.36
2016-12-16T01:41:58.770Z,23.38
2016-12-16T01:42:39.350Z,23.35
2016-12-16T01:43:19.938Z,23.39
2016-12-16T01:44:00.531Z,23.35
2016-12-16T01:44:41.114Z,23.38
2016-12-16T01:45:21.694Z,23.43
2016-12-16T01:46:02.277Z,23.33
2016-12-16T01:46:42.870Z,23.36
2016-12-16T01:47:23.451Z,23.39
2016-12-16T01:48:04.038Z,23.38
2016-12-16T01:48:44.638Z,23.38
2016-12-16T01:49:25.245Z,23.46
2016-12-16T01:50:05.852Z,23.43
2016-12-16T01:50:46.444Z,23.35
2016-12-16T01:51:27.053Z,23.38
2016-12-16T01:52:07.650Z,23.38
2016-12-16T01:52:48.254Z,23.46
2016-12-16T01:53:28.852Z,23.39
2016-12-16T01:54:09.444Z,23.35
2016-12-16T01:54:50.028Z,23.35
2016-12-16T01:55:30.609Z,23.35
2016-12-16T01:56:11.196Z,23.36
2016-12-16T01:56:51.776Z,23.35
2016-12-16T01:57:32.366Z,23.39
2016-12-16T01:58:12.954Z,23.38
2016-12-16T01:58:53.548Z,23.38
2016-12-16T01:59:34.137Z,23.46
2016-12-16T02:00:14.720Z,23.46
2016-12-16T02:00:55.300Z,23.4
2016-12-16T02:01:35.891Z,23.35
2016-12-16T02:02:16.468Z,23.38
2016-12-16T02:02:57.050Z,23.31
2016-12-16T02:03:37.631Z,23.4
2016-12-16T02:04:18.221Z,23.35
2016-12-16T02:04:58.813Z,23.36
2016-12-16T02:05:39.398Z,23.46
2016-12-16T02:06:19.991Z,23.43
2016-12-16T02:07:00.591Z,23.35
2016-12-16T02:07:41.184Z,23.36
2016-12-16T02:08:21.760Z,23.36
2016-12-16T02:09:02.342Z,23.42
2016-12-16T02:09:42.936Z,23.39
2016-12-16T02:10:23.514Z,23.35
2016-12-16T02:11:04.097Z,23.35
2016-12-16T02:11:44.682Z,23.4
2016-12-16T02:12:25.264Z,23.35
2016-12-16T02:13:05.845Z,23.4
2016-12-16T02:13:46.438Z,23.36
2016-12-16T02:14:27.016Z,23.35
2016-12-16T02:15:07.601Z,23.38
2016-12-16T02:15:48.187Z,23.42
2016-12-16T02:16:28.766Z,23.35
2016-12-16T02:17:09.347Z,23.39
2016-12-16T02:17:49.928Z,23.38
2016-12-16T02:18:30.498Z,23.36
2016-12-16T02:19:11.076Z,23.35
2016-12-16T02:19:51.657Z,23.33
2016-12-16T02:20:32.239Z,23.43
2016-12-16T02:21:12.825Z,23.35
2016-12-16T02:21:53.414Z,23.36
2016-12-16T02:22:33.998Z,23.39
2016-12-16T02:23:14.583Z,23.39
2016-12-16T02:23:55.165Z,23.36
2016-12-16T02:24:35.761Z,23.38
2016-12-16T02:25:16.364Z,23.36
2016-12-16T02:25:56.955Z,23.4
2016-12-16T02:26:37.536Z,23.43
2016-12-16T02:27:18.121Z,23.4
2016-12-16T02:27:58.706Z,23.36
2016-12-16T02:28:39.283Z,23.38
2016-12-16T02:29:19.870Z,23.4
2016-12-16T02:30:00.454Z,23.36
2016-12-16T02:30:41.030Z,23.35
2016-12-16T02:31:21.615Z,23.4
2016-12-16T02:32:02.204Z,23.39
2016-12-16T02:32:42.777Z,23.36
2016-12-16T02:33:23.375Z,23.38
2016-12-16T02:34:03.958Z,23.39
2016-12-16T02:34:44.542Z,23.42
2016-12-16T02:35:25.132Z,23.42
2016-12-16T02:36:05.712Z,23.43
2016-12-16T02:36:46.293Z,23.4
2016-12-16T02:37:26.874Z,23.32
2016-12-16T02:38:07.459Z,23.42
2016-12-16T02:38:48.033Z,23.35
2016-12-16T02:39:28.623Z,23.46
2016-12-16T02:40:09.208Z,23.42
2016-12-16T02:40:49.781Z,23.35
2016-12-16T02:41:30.378Z,23.42
2016-12-16T02:42:10.971Z,23.4
2016-12-16T02:42:51.558Z,23.39
2016-12-16T02:43:32.142Z,23.38
2016-12-16T02:44:12.724Z,23.35
2016-12-16T02:44:53.305Z,23.36
2016-12-16T02:45:33.893Z,23.38
2016-12-16T02:46:14.476Z,23.39
2016-12-16T02:46:55.076Z,23.32
2016-12-16T02:47:35.670Z,23.38
2016-12-16T02:48:16.256Z,23.35
2016-12-16T02:48:56.844Z,23.38
2016-12-16T02:49:37.433Z,23.36
2016-12-16T02:50:18.012Z,23.32
2016-12-16T02:50:58.598Z,23.33
2016-12-16T02:51:39.175Z,23.38
2016-12-16T02:52:19.766Z,23.39
2016-12-16T02:53:00.359Z,23.36
2016-12-16T02:53:40.933Z,23.39
2016-12-16T02:54:21.515Z,23.32
2016-12-16T02:55:02.108Z,23.4
2016-12-16T02:55:42.687Z,23.39
2016-12-16T02:56:23.269Z,23.39
2016-12-16T02:57:03.857Z,23.35
2016-12-16T02:57:44.439Z,23.38
2016-12-16T02:58:25.019Z,23.4
2016-12-16T02:59:05.623Z,23.32
2016-12-16T02:59:46.233Z,23.31
2016-12-16T03:00:26.836Z,23.38
2016-12-16T03:01:07.432Z,23.4
2016-12-16T03:01:48.035Z,23.39
2016-12-16T03:02:28.629Z,23.39
2016-12-16T03:03:09.210Z,23.36
2016-12-16T03:03:49.794Z,23.32
2016-12-16T03:04:30.389Z,23.38
2016-12-16T03:05:10.986Z,23.39
2016-12-16T03:05:51.591Z,23.42
2016-12-16T03:06:32.186Z,23.4
2016-12-16T03:07:12.777Z,23.39
2016-12-16T03:07:53.363Z,23.33
2016-12-16T03:08:33.953Z,23.33
2016-12-16T03:09:14.548Z,23.32
2016-12-16T03:09:55.152Z,23.38
2016-12-16T03:10:35.734Z,23.36
2016-12-16T03:11:16.313Z,23.35
2016-12-16T03:11:56.897Z,23.38
2016-12-16T03:12:37.483Z,23.33
2016-12-16T03:13:18.069Z,23.36
2016-12-16T03:13:58.674Z,23.38
2016-12-16T03:14:39.282Z,23.36
2016-12-16T03:15:19.870Z,23.36
2016-12-16T03:16:00.466Z,23.43
2016-12-16T03:16:41.063Z,23.39
2016-12-16T03:17:21.644Z,23.33
2016-12-16T03:18:02.238Z,23.33
2016-12-16T03:18:42.815Z,23.38
2016-12-16T03:19:23.402Z,23.36
2016-12-16T03:20:03.989Z,23.42
2016-12-16T03:20:44.579Z,23.32
2016-12-16T03:21:25.154Z,23.31
2016-12-16T03:22:05.751Z,23.33
2016-12-16T03:22:46.335Z,23.39
2016-12-16T03:23:26.928Z,23.31
2016-12-16T03:24:07.537Z,23.32
2016-12-16T03:24:48.125Z,23.31
2016-12-16T03:25:28.705Z,23.39
2016-12-16T03:26:09.285Z,23.28
2016-12-16T03:26:49.864Z,23.39
2016-12-16T03:27:30.445Z,23.33
2016-12-16T03:28:11.027Z,23.33
2016-12-16T03:28:51.609Z,23.32
2016-12-16T03:29:32.189Z,23.28
2016-12-16T03:30:12.761Z,23.38
2016-12-16T03:30:53.349Z,23.39
2016-12-16T03:31:33.937Z,23.38
2016-12-16T03:32:14.533Z,23.33
2016-12-16T03:32:55.113Z,23.39
2016-12-16T03:33:35.699Z,23.31
2016-12-16T03:34:16.287Z,23.33
2016-12-16T03:34:56.869Z,23.33
2016-12-16T03:35:37.453Z,23.28
2016-12-16T03:36:18.046Z,23.33
2016-12-16T03:36:58.636Z,23.31
2016-12-16T03:37:39.216Z,23.33
2016-12-16T03:38:19.808Z,23.32
2016-12-16T03:39:00.394Z,23.32
2016-12-16T03:39:40.976Z,23.23
2016-12-16T03:40:21.562Z,23.25
2016-12-16T03:41:02.141Z,23.32
2016-12-16T03:41:42.734Z,23.28
2016-12-16T03:42:23.317Z,23.32
2016-12-16T03:43:03.895Z,23.33
2016-12-16T03:43:44.473Z,23.39
2016-12-16T03:44:25.057Z,23.36
2016-12-16T03:45:05.649Z,23.31
2016-12-16T03:45:46.247Z,23.32
2016-12-16T03:46:26.829Z,23.28
2016-12-16T03:47:07.407Z,23.32
2016-12-16T03:47:47.997Z,23.28
2016-12-16T03:48:28.589Z,23.35
2016-12-16T03:49:09.179Z,23.28
2016-12-16T03:49:49.766Z,23.28
2016-12-16T03:50:30.360Z,23.35
2016-12-16T03:51:10.960Z,23.33
2016-12-16T03:51:51.540Z,23.31
2016-12-16T03:52:32.119Z,23.23
2016-12-16T03:53:12.712Z,23.23
2016-12-16T03:53:53.314Z,23.33
2016-12-16T03:54:33.906Z,23.28
2016-12-16T03:55:14.492Z,23.31
2016-12-16T03:55:55.078Z,23.31
2016-12-16T03:56:35.664Z,23.31
2016-12-16T03:57:16.281Z,23.31
2016-12-16T03:57:56.867Z,23.36
2016-12-16T03:58:37.443Z,23.31
2016-12-16T03:59:18.037Z,23.31
2016-12-16T03:59:58.627Z,23.28
2016-12-16T04:00:39.205Z,23.28
2016-12-16T04:01:19.800Z,23.33
2016-12-16T04:02:00.381Z,23.28
2016-12-16T04:02:40.968Z,23.38
2016-12-16T04:03:21.544Z,23.28
2016-12-16T04:04:02.144Z,23.27
2016-12-16T04:04:42.727Z,23.32
2016-12-16T04:05:23.310Z,23.31
2016-12-16T04:06:03.897Z,23.28
2016-12-16T04:06:44.479Z,23.27
2016-12-16T04:07:25.061Z,23.32
2016-12-16T04:08:05.651Z,23.31
2016-12-16T04:08:46.254Z,23.32
2016-12-16T04:09:26.852Z,23.31
2016-12-16T04:10:07.438Z,23.28
2016-12-16T04:10:48.033Z,23.23
2016-12-16T04:11:28.627Z,23.32
2016-12-16T04:12:09.206Z,23.31
2016-12-16T04:12:49.779Z,23.31
2016-12-16T04:13:30.358Z,23.32
2016-12-16T04:14:10.950Z,23.33
2016-12-16T04:14:51.530Z,23.31
2016-12-16T04:15:32.116Z,23.25
2016-12-16T04:16:12.704Z,23.28
2016-12-16T04:16:53.310Z,23.28
2016-12-16T04:17:33.904Z,23.31
2016-12-16T04:18:14.502Z,23.33
2016-12-16T04:18:55.102Z,23.28
2016-12-16T04:19:35.688Z,23.23
2016-12-16T04:20:16.277Z,23.33
2016-12-16T04:20:56.865Z,23.28
2016-12-16T04:21:37.446Z,23.28
2016-12-16T04:22:18.036Z,23.31
2016-12-16T04:22:58.643Z,23.31
2016-12-16T04:23:39.240Z,23.31
2016-12-16T04:24:19.830Z,23.35
2016-12-16T04:25:00.407Z,23.31
2016-12-16T04:25:41.004Z,23.28
2016-12-16T04:26:21.593Z,23.35
2016-12-16T04:27:02.193Z,23.31
2016-12-16T04:27:42.785Z,23.28
2016-12-16T04:28:23.358Z,23.32
2016-12-16T04:29:03.948Z,23.31
2016-12-16T04:29:44.533Z,23.2
2016-12-16T04:30:25.117Z,23.27
2016-12-16T04:31:05.702Z,23.32
2016-12-16T04:31:46.281Z,23.28
2016-12-16T04:32:26.868Z,23.35
2016-12-16T04:33:07.453Z,23.28
2016-12-16T04:33:48.066Z,23.35
2016-12-16T04:34:28.645Z,23.28
2016-12-16T04:35:09.226Z,23.35
2016-12-16T04:35:49.815Z,23.28
2016-12-16T04:36:30.396Z,23.28
2016-12-16T04:37:10.978Z,23.32
2016-12-16T04:37:51.562Z,23.28
2016-12-16T04:38:32.147Z,23.31
2016-12-16T04:39:12.736Z,23.32
2016-12-16T04:39:53.317Z,23.31
2016-12-16T04:40:33.922Z,23.32
2016-12-16T04:41:14.504Z,23.39
2016-12-16T04:41:55.094Z,23.4
2016-12-16T04:42:35.673Z,23.36
2016-12-16T04:43:16.257Z,23.28
2016-12-16T04:43:56.839Z,23.31
2016-12-16T04:44:37.428Z,23.25
2016-12-16T04:45:18.008Z,23.25
2016-12-16T04:45:58.591Z,23.27
2016-12-16T04:46:39.210Z,23.31
2016-12-16T04:47:19.793Z,23.32
2016-12-16T04:48:00.383Z,23.28
2016-12-16T04:48:40.966Z,23.27
2016-12-16T04:49:21.550Z,23.27
2016-12-16T04:50:02.145Z,23.31
2016-12-16T04:50:42.725Z,23.28
2016-12-16T04:51:23.306Z,23.25
2016-12-16T04:52:03.887Z,23.31
2016-12-16T04:52:44.464Z,23.23
2016-12-16T04:53:25.063Z,23.23
2016-12-16T04:54:05.637Z,23.28
2016-12-16T04:54:46.215Z,23.23
2016-12-16T04:55:26.796Z,23.32
2016-12-16T04:56:07.385Z,23.28
2016-12-16T04:56:47.966Z,23.25
2016-12-16T04:57:28.546Z,23.27
2016-12-16T04:58:09.124Z,23.31
2016-12-16T04:58:49.700Z,23.23
2016-12-16T04:59:30.284Z,23.28
2016-12-16T05:00:10.878Z,23.35
2016-12-16T05:00:51.455Z,23.33
2016-12-16T05:01:32.038Z,23.28
2016-12-16T05:02:12.622Z,23.25
2016-12-16T05:02:53.233Z,23.32
2016-12-16T05:03:33.838Z,23.25
2016-12-16T05:04:14.415Z,23.22
2016-12-16T05:04:54.999Z,23.25
2016-12-16T05:05:35.581Z,23.33
2016-12-16T05:06:16.168Z,23.25
2016-12-16T05:06:56.752Z,23.23
2016-12-16T05:07:37.331Z,23.33
2016-12-16T05:08:17.912Z,23.27
2016-12-16T05:08:58.500Z,23.27
2016-12-16T05:09:39.079Z,23.32
2016-12-16T05:10:19.673Z,23.25
2016-12-16T05:11:00.252Z,23.25
2016-12-16T05:11:40.834Z,23.25
2016-12-16T05:12:21.433Z,23.32
2016-12-16T05:13:02.015Z,23.23
2016-12-16T05:13:42.606Z,23.23
2016-12-16T05:14:23.203Z,23.22
2016-12-16T05:15:03.797Z,23.23
2016-12-16T05:15:44.389Z,23.22
2016-12-16T05:16:24.969Z,23.28
2016-12-16T05:17:05.555Z,23.32
2016-12-16T05:17:46.144Z,23.23
2016-12-16T05:18:26.728Z,23.28
2016-12-16T05:19:07.308Z,23.23
2016-12-16T05:19:47.905Z,23.23
2016-12-16T05:20:28.492Z,23.25
2016-12-16T05:21:09.073Z,23.28
2016-12-16T05:21:49.663Z,23.25
2016-12-16T05:22:30.243Z,23.28
2016-12-16T05:23:10.838Z,23.32
2016-12-16T05:23:51.424Z,23.25
2016-12-16T05:24:32.003Z,23.25
2016-12-16T05:25:12.593Z,23.23
2016-12-16T05:25:53.173Z,23.22
2016-12-16T05:26:33.753Z,23.22
2016-12-16T05:27:14.345Z,23.25
2016-12-16T05:27:54.937Z,23.28
2016-12-16T05:28:35.526Z,23.28
2016-12-16T05:29:16.113Z,23.22
2016-12-16T05:29:56.704Z,23.27
2016-12-16T05:30:37.287Z,23.25
2016-12-16T05:31:17.868Z,23.23
2016-12-16T05:31:58.455Z,23.22
2016-12-16T05:32:39.037Z,23.19
2016-12-16T05:33:19.621Z,23.2
2016-12-16T05:34:00.205Z,23.35
2016-12-16T05:34:40.784Z,23.22
2016-12-16T05:35:21.373Z,23.27
2016-12-16T05:36:01.955Z,23.23
2016-12-16T05:36:42.539Z,23.22
2016-12-16T05:37:23.128Z,23.23
2016-12-16T05:38:03.708Z,23.23
2016-12-16T05:38:44.294Z,23.19
2016-12-16T05:39:24.884Z,23.23
2016-12-16T05:40:05.478Z,23.22
2016-12-16T05:40:46.070Z,23.36
2016-12-16T05:41:26.649Z,23.22
2016-12-16T05:42:07.236Z,23.32
2016-12-16T05:42:47.823Z,23.2
2016-12-16T05:43:28.401Z,23.25
2016-12-16T05:44:08.972Z,23.23
2016-12-16T05:44:49.574Z,23.22
2016-12-16T05:45:30.160Z,23.2
2016-12-16T05:46:10.733Z,23.25
2016-12-16T05:46:51.316Z,23.22
2016-12-16T05:47:31.903Z,23.23
2016-12-16T05:48:12.484Z,23.31
2016-12-16T05:48:53.066Z,23.2
2016-12-16T05:49:33.653Z,23.22
2016-12-16T05:50:14.235Z,23.22
2016-12-16T05:50:54.820Z,23.2
2016-12-16T05:51:35.407Z,23.27
2016-12-16T05:52:15.996Z,23.19
2016-12-16T05:52:56.581Z,23.23
2016-12-16T05:53:37.168Z,23.32
2016-12-16T05:54:17.760Z,23.2
2016-12-16T05:54:58.345Z,23.2
2016-12-16T05:55:38.926Z,23.25
2016-12-16T05:56:19.519Z,23.25
2016-12-16T05:57:00.100Z,23.28
2016-12-16T05:57:40.685Z,23.23
2016-12-16T05:58:21.269Z,23.19
2016-12-16T05:59:01.864Z,23.23
2016-12-16T05:59:42.452Z,23.32
2016-12-16T06:00:23.041Z,23.27
2016-12-16T06:01:03.641Z,23.27
2016-12-16T06:01:44.213Z,23.23
2016-12-16T06:02:24.791Z,23.32
2016-12-16T06:03:05.381Z,23.22
2016-12-16T06:03:45.960Z,23.31
2016-12-16T06:04:26.545Z,23.32
2016-12-16T06:05:07.134Z,23.2
2016-12-16T06:05:47.725Z,23.28
2016-12-16T06:06:28.319Z,23.22
2016-12-16T06:07:08.894Z,23.23
2016-12-16T06:07:49.469Z,23.22
2016-12-16T06:08:30.055Z,23.25
2016-12-16T06:09:10.660Z,23.23
2016-12-16T06:09:51.255Z,23.2
2016-12-16T06:10:31.855Z,23.25
2016-12-16T06:11:12.444Z,23.23
2016-12-16T06:11:53.048Z,23.31
2016-12-16T06:12:33.637Z,23.25
2016-12-16T06:13:14.226Z,23.25
2016-12-16T06:13:54.813Z,23.25
2016-12-16T06:14:35.401Z,23.17
2016-12-16T06:15:15.988Z,23.27
2016-12-16T06:15:56.582Z,23.25
2016-12-16T06:16:37.167Z,23.23
2016-12-16T06:17:17.739Z,23.23
2016-12-16T06:17:58.311Z,23.25
2016-12-16T06:18:38.901Z,23.25
2016-12-16T06:19:19.496Z,23.2
2016-12-16T06:20:00.081Z,23.31
2016-12-16T06:20:40.665Z,23.28
2016-12-16T06:21:21.246Z,23.25
2016-12-16T06:22:01.833Z,23.27
2016-12-16T06:22:42.401Z,23.28
2016-12-16T06:23:22.984Z,23.35
2016-12-16T06:24:03.572Z,23.25
2016-12-16T06:24:44.160Z,23.22
2016-12-16T06:25:24.746Z,23.35
2016-12-16T06:26:05.329Z,23.28
2016-12-16T06:26:45.939Z,23.23
2016-12-16T06:27:26.527Z,23.25
2016-12-16T06:28:07.115Z,23.22
2016-12-16T06:28:47.708Z,23.22
2016-12-16T06:29:28.300Z,23.23
2016-12-16T06:30:08.879Z,23.2
2016-12-16T06:30:49.467Z,23.27
2016-12-16T06:31:30.059Z,23.35
2016-12-16T06:32:10.654Z,23.25
2016-12-16T06:32:51.228Z,23.22
2016-12-16T06:33:31.816Z,23.31
2016-12-16T06:34:12.410Z,23.28
2016-12-16T06:34:52.993Z,23.31
2016-12-16T06:35:33.578Z,23.27
2016-12-16T06:36:14.172Z,23.22
2016-12-16T06:36:54.771Z,23.2
2016-12-16T06:37:35.362Z,23.2
2016-12-16T06:38:15.935Z,23.27
2016-12-16T06:38:56.554Z,23.2
2016-12-16T06:39:37.137Z,23.2
2016-12-16T06:40:17.722Z,23.22
2016-12-16T06:40:58.299Z,23.25
2016-12-16T06:41:38.885Z,23.25
2016-12-16T06:42:19.479Z,23.22
2016-12-16T06:43:00.071Z,23.2
2016-12-16T06:43:40.661Z,23.31
2016-12-16T06:44:21.246Z,23.32
2016-12-16T06:45:01.826Z,23.2
2016-12-16T06:45:42.409Z,23.23
2016-12-16T06:46:23.007Z,23.28
2016-12-16T06:47:03.597Z,23.23
2016-12-16T06:47:44.186Z,23.28
2016-12-16T06:48:24.768Z,23.22
2016-12-16T06:49:05.366Z,23.23
2016-12-16T06:49:45.957Z,23.19
2016-12-16T06:50:26.551Z,23.22
2016-12-16T06:51:07.143Z,23.23
2016-12-16T06:51:47.719Z,23.2
2016-12-16T06:52:28.299Z,23.22
2016-12-16T06:53:08.891Z,23.22
2016-12-16T06:53:49.480Z,23.27
2016-12-16T06:54:30.074Z,23.22
2016-12-16T06:55:10.669Z,23.22
2016-12-16T06:55:51.268Z,23.25
2016-12-16T06:56:31.856Z,23.31
2016-12-16T06:57:12.434Z,23.19
2016-12-16T06:57:53.013Z,23.25
2016-12-16T06:58:33.593Z,23.23
2016-12-16T06:59:14.186Z,23.28
2016-12-16T06:59:54.784Z,23.28
2016-12-16T07:00:35.378Z,23.2
2016-12-16T07:01:15.974Z,23.2
2016-12-16T07:01:56.548Z,23.23
2016-12-16T07:02:37.159Z,23.31
2016-12-16T07:03:17.748Z,23.28
2016-12-16T07:03:58.338Z,23.2
2016-12-16T07:04:38.937Z,23.28
2016-12-16T07:05:19.525Z,23.22
2016-12-16T07:06:00.114Z,23.2
2016-12-16T07:06:40.695Z,23.23
2016-12-16T07:07:21.280Z,23.22
2016-12-16T07:08:01.870Z,23.22
2016-12-16T07:08:42.459Z,23.2
2016-12-16T07:09:23.033Z,23.28
2016-12-16T07:10:03.620Z,23.19
2016-12-16T07:10:44.212Z,23.25
2016-12-16T07:11:24.801Z,23.27
2016-12-16T07:12:05.388Z,23.22
2016-12-16T07:12:45.987Z,23.28
2016-12-16T07:13:26.585Z,23.2
2016-12-16T07:14:07.203Z,23.27
2016-12-16T07:14:47.826Z,23.23
2016-12-16T07:15:28.438Z,23.2
2016-12-16T07:16:09.127Z,23.25
2016-12-16T07:16:49.747Z,23.22
2016-12-16T07:17:30.358Z,23.22
2016-12-16T07:18:10.939Z,23.23
2016-12-16T07:18:51.593Z,23.27
2016-12-16T07:19:32.209Z,23.27
2016-12-16T07:20:12.835Z,23.25
2016-12-16T07:20:53.433Z,23.19
2016-12-16T07:21:34.024Z,23.22
2016-12-16T07:22:14.639Z,23.28
2016-12-16T07:22:55.236Z,23.25
2016-12-16T07:23:35.830Z,23.23
2016-12-16T07:24:16.428Z,23.31
2016-12-16T07:24:57.026Z,23.25
2016-12-16T07:25:37.626Z,23.25
2016-12-16T07:26:18.217Z,23.23
2016-12-16T07:26:58.814Z,23.1
2016-12-16T07:27:39.418Z,23.02
2016-12-16T07:28:20.030Z,22.94
2016-12-16T07:29:00.636Z,22.91
2016-12-16T07:29:41.238Z,22.85
2016-12-16T07:30:21.845Z,22.75
2016-12-16T07:31:02.466Z,22.65
2016-12-16T07:31:43.099Z,22.64
2016-12-16T07:32:23.709Z,22.68
2016-12-16T07:33:04.303Z,22.62
2016-12-16T07:33:44.904Z,22.64
2016-12-16T07:34:25.507Z,22.64
2016-12-16T07:35:06.109Z,22.7
2016-12-16T07:35:46.705Z,22.68
2016-12-16T07:36:27.341Z,22.61
2016-12-16T07:37:07.970Z,22.72
2016-12-16T07:37:48.563Z,22.85
2016-12-16T07:38:29.176Z,22.86
2016-12-16T07:39:09.767Z,22.73
2016-12-16T07:39:50.366Z,22.83
2016-12-16T07:40:30.985Z,22.83
2016-12-16T07:41:11.579Z,22.92
2016-12-16T07:41:52.191Z,22.82
2016-12-16T07:42:32.780Z,22.94
2016-12-16T07:43:13.390Z,22.88
2016-12-16T07:43:53.974Z,22.91
2016-12-16T07:44:34.577Z,22.94
2016-12-16T07:45:15.183Z,22.98
2016-12-16T07:45:55.790Z,23.05
2016-12-16T07:46:36.389Z,23.09
2016-12-16T07:47:16.975Z,23.09
2016-12-16T07:47:57.575Z,23.13
2016-12-16T07:48:38.153Z,23.2
2016-12-16T07:49:18.785Z,23.17
2016-12-16T07:49:59.405Z,23.16
2016-12-16T07:50:40.014Z,23.19
2016-12-16T07:51:20.603Z,23.22
2016-12-16T07:52:01.198Z,23.16
2016-12-16T07:52:41.831Z,23.27
2016-12-16T07:53:22.433Z,23.28
2016-12-16T07:54:03.018Z,23.22
2016-12-16T07:54:43.615Z,23.28
2016-12-16T07:55:24.221Z,23.25
2016-12-16T07:56:04.820Z,23.32
2016-12-16T07:56:45.421Z,23.36
2016-12-16T07:57:26.020Z,23.39
2016-12-16T07:58:06.630Z,23.42
2016-12-16T07:58:47.216Z,23.4
2016-12-16T07:59:27.807Z,23.39
2016-12-16T08:00:08.399Z,23.51
2016-12-16T08:00:48.991Z,23.46
2016-12-16T08:01:29.584Z,23.5
2016-12-16T08:02:10.203Z,23.51
2016-12-16T08:02:50.794Z,23.48
2016-12-16T08:03:31.383Z,23.4
2016-12-16T08:04:11.970Z,23.51
2016-12-16T08:04:52.559Z,23.54
2016-12-16T08:05:33.173Z,23.51
2016-12-16T08:06:13.758Z,23.5
2016-12-16T08:06:54.363Z,23.57
2016-12-16T08:07:34.945Z,23.63
2016-12-16T08:08:15.546Z,23.57
2016-12-16T08:08:56.234Z,23.58
2016-12-16T08:09:36.826Z,23.68
2016-12-16T08:10:17.418Z,23.54
2016-12-16T08:10:58.005Z,23.65
2016-12-16T08:11:39.409Z,23.6
2016-12-16T08:12:19.182Z,23.68
2016-12-16T08:12:59.788Z,23.63
2016-12-16T08:13:40.396Z,23.66
2016-12-16T08:14:20.997Z,23.69
2016-12-16T08:15:01.593Z,23.68
2016-12-16T08:15:42.206Z,23.7
2016-12-16T08:16:22.800Z,23.66
2016-12-16T08:17:03.380Z,23.61
2016-12-16T08:17:43.967Z,23.68
2016-12-16T08:18:24.584Z,23.68
2016-12-16T08:19:05.195Z,23.6
2016-12-16T08:19:45.800Z,23.68
2016-12-16T08:20:26.413Z,23.65
2016-12-16T08:21:07.022Z,23.63
2016-12-16T08:21:47.659Z,23.66
2016-12-16T08:22:28.242Z,23.63
2016-12-16T08:23:08.830Z,23.7
2016-12-16T08:23:49.425Z,23.68
2016-12-16T08:24:30.019Z,23.72
2016-12-16T08:25:10.625Z,23.72
2016-12-16T08:25:51.211Z,23.75
2016-12-16T08:26:31.801Z,23.69
2016-12-16T08:27:12.421Z,23.72
2016-12-16T08:27:53.044Z,23.75
2016-12-16T08:28:33.639Z,23.69
2016-12-16T08:29:14.242Z,23.72
2016-12-16T08:29:54.837Z,23.72
2016-12-16T08:30:35.466Z,23.79
2016-12-16T08:31:16.055Z,23.75
2016-12-16T08:31:56.644Z,23.83
2016-12-16T08:32:37.269Z,23.75
2016-12-16T08:33:17.831Z,23.76
2016-12-16T08:33:58.421Z,23.75
2016-12-16T08:34:39.036Z,23.78
2016-12-16T08:35:19.635Z,23.79
2016-12-16T08:36:00.258Z,23.78
2016-12-16T08:36:40.842Z,23.8
2016-12-16T08:37:21.463Z,23.78
2016-12-16T08:38:02.051Z,23.83
2016-12-16T08:38:42.669Z,23.75
2016-12-16T08:39:23.251Z,23.78
2016-12-16T08:40:03.857Z,23.79
2016-12-16T08:40:44.453Z,23.78
2016-12-16T08:41:25.063Z,23.79
2016-12-16T08:42:05.648Z,23.79
2016-12-16T08:42:46.242Z,23.83
2016-12-16T08:43:26.865Z,23.8
2016-12-16T08:44:07.462Z,23.85
2016-12-16T08:44:48.079Z,23.84